createdAt,value
2023-12-20T00:01:03.073Z,101645.94
2023-12-20T00:03:38.253Z,101645.44
2023-12-20T00:06:08.862Z,101637.38
2023-12-20T00:08:35.319Z,101632.59
2023-12-20T00:11:01.781Z,101636.19
2023-12-20T00:13:28.261Z,101637.56
2023-12-20T00:15:55.059Z,101632.50
2023-12-20T00:18:21.529Z,101632.81
2023-12-20T00:20:47.973Z,101627.75
2023-12-20T00:23:14.380Z,101629.31
2023-12-20T00:25:40.817Z,101631.31
2023-12-20T00:28:07.750Z,101625.44
2023-12-20T00:30:34.877Z,101622.53
2023-12-20T00:33:01.536Z,101626.59
2023-12-20T00:35:28.154Z,101638.44
2023-12-20T00:37:54.627Z,101640.38
2023-12-20T00:40:21.956Z,101637.72
2023-12-20T00:42:49.459Z,101634.53
2023-12-20T00:45:16.196Z,101632.75
2023-12-20T00:47:43.184Z,101624.16
2023-12-20T00:50:10.835Z,101623.97
2023-12-20T00:52:37.351Z,101623.47
2023-12-20T00:55:05.216Z,101621.66
2023-12-20T00:57:32.487Z,101624.63
2023-12-20T00:59:59.169Z,101633.97
2023-12-20T01:02:25.815Z,101635.59
2023-12-20T01:04:52.498Z,101628.13
2023-12-20T01:07:19.337Z,101625.16
2023-12-20T01:09:45.908Z,101625.44
2023-12-20T01:12:12.639Z,101631.00
2023-12-20T01:14:40.813Z,101616.28
2023-12-20T01:17:07.612Z,101616.28
2023-12-20T01:19:34.369Z,101609.13
2023-12-20T01:22:00.908Z,101605.97
2023-12-20T01:24:27.358Z,101614.88
2023-12-20T01:26:53.914Z,101619.72
2023-12-20T01:29:20.516Z,101623.50
2023-12-20T01:31:47.242Z,101633.16
2023-12-20T01:34:14.122Z,101645.44
2023-12-20T01:36:40.710Z,101639.00
2023-12-20T01:39:16.306Z,101633.63
2023-12-20T01:41:51.042Z,101632.25
2023-12-20T01:44:17.606Z,101622.84
2023-12-20T01:46:44.064Z,101624.41
2023-12-20T01:49:10.801Z,101622.25
2023-12-20T01:51:37.647Z,101620.94
2023-12-20T01:54:05.168Z,101615.00
2023-12-20T01:56:32.290Z,101620.78
2023-12-20T01:58:59.209Z,101622.59
2023-12-20T02:01:26.246Z,101627.13
2023-12-20T02:03:53.075Z,101620.78
2023-12-20T02:06:19.702Z,101621.06
2023-12-20T02:08:46.291Z,101621.94
2023-12-20T02:11:12.953Z,101616.91
2023-12-20T02:13:39.397Z,101617.97
2023-12-20T02:16:06.661Z,101616.06
2023-12-20T02:18:33.327Z,101615.00
2023-12-20T02:20:59.766Z,101610.91
2023-12-20T02:23:26.655Z,101604.97
2023-12-20T02:25:53.250Z,101610.56
2023-12-20T02:28:20.094Z,101608.06
2023-12-20T02:30:47.083Z,101614.75
2023-12-20T02:33:15.662Z,101602.34
2023-12-20T02:35:42.305Z,101609.50
2023-12-20T02:38:08.710Z,101607.31
2023-12-20T02:40:35.190Z,101610.50
2023-12-20T02:43:01.880Z,101605.13
2023-12-20T02:45:28.362Z,101595.50
2023-12-20T02:47:54.928Z,101599.78
2023-12-20T02:50:21.460Z,101595.22
2023-12-20T02:52:48.546Z,101593.63
2023-12-20T02:55:15.166Z,101589.84
2023-12-20T02:57:43.422Z,101587.16
2023-12-20T03:00:11.939Z,101585.84
2023-12-20T03:02:38.445Z,101581.56
2023-12-20T03:05:05.240Z,101580.00
2023-12-20T03:07:31.726Z,101585.06
2023-12-20T03:10:11.518Z,101575.91
2023-12-20T03:12:44.958Z,101575.91
2023-12-20T03:15:11.800Z,101575.91
2023-12-20T03:17:38.288Z,101576.63
2023-12-20T03:20:05.497Z,101570.66
2023-12-20T03:22:32.040Z,101573.88
2023-12-20T03:24:58.721Z,101574.94
2023-12-20T03:27:25.119Z,101563.44
2023-12-20T03:29:51.549Z,101559.34
2023-12-20T03:32:17.952Z,101553.69
2023-12-20T03:34:44.587Z,101556.66
2023-12-20T03:37:11.178Z,101565.81
2023-12-20T03:39:37.850Z,101558.56
2023-12-20T03:42:04.764Z,101566.00
2023-12-20T03:44:31.282Z,101560.34
2023-12-20T03:46:57.725Z,101566.22
2023-12-20T03:49:24.198Z,101567.50
2023-12-20T03:51:50.718Z,101572.56
2023-12-20T03:54:17.263Z,101570.19
2023-12-20T03:56:43.672Z,101568.91
2023-12-20T03:59:10.225Z,101562.72
2023-12-20T04:01:37.057Z,101552.06
2023-12-20T04:04:04.136Z,101564.41
2023-12-20T04:06:30.759Z,101563.81
2023-12-20T04:08:57.247Z,101564.53
2023-12-20T04:11:23.766Z,101556.66
2023-12-20T04:13:50.353Z,101562.22
2023-12-20T04:16:16.803Z,101560.84
2023-12-20T04:18:43.384Z,101555.19
2023-12-20T04:21:09.812Z,101549.81
2023-12-20T04:23:36.224Z,101551.97
2023-12-20T04:26:02.736Z,101554.19
2023-12-20T04:28:31.359Z,101551.97
2023-12-20T04:30:58.124Z,101549.19
2023-12-20T04:33:24.632Z,101553.97
2023-12-20T04:35:51.074Z,101559.53
2023-12-20T04:38:17.465Z,101557.06
2023-12-20T04:40:43.972Z,101562.63
2023-12-20T04:43:10.718Z,101553.78
2023-12-20T04:45:37.724Z,101554.78
2023-12-20T04:48:05.302Z,101551.59
2023-12-20T04:50:31.954Z,101554.78
2023-12-20T04:52:58.652Z,101543.44
2023-12-20T04:55:25.393Z,101543.63
2023-12-20T04:57:51.935Z,101533.41
2023-12-20T05:00:18.900Z,101540.22
2023-12-20T05:02:45.380Z,101535.06
2023-12-20T05:05:12.019Z,101534.75
2023-12-20T05:07:38.597Z,101534.75
2023-12-20T05:10:05.620Z,101532.84
2023-12-20T05:12:32.351Z,101539.03
2023-12-20T05:14:59.926Z,101530.69
2023-12-20T05:17:26.555Z,101544.91
2023-12-20T05:19:53.359Z,101537.34
2023-12-20T05:22:21.540Z,101546.69
2023-12-20T05:24:48.103Z,101540.22
2023-12-20T05:27:14.589Z,101531.66
2023-12-20T05:29:41.156Z,101540.22
2023-12-20T05:32:07.722Z,101542.91
2023-12-20T05:34:34.350Z,101537.53
2023-12-20T05:37:03.115Z,101544.78
2023-12-20T05:39:29.685Z,101543.09
2023-12-20T05:41:56.294Z,101546.59
2023-12-20T05:44:22.720Z,101539.78
2023-12-20T05:46:49.277Z,101539.00
2023-12-20T05:49:15.855Z,101532.53
2023-12-20T05:51:42.410Z,101540.31
2023-12-20T05:54:10.423Z,101536.53
2023-12-20T05:56:36.825Z,101539.53
2023-12-20T05:59:03.362Z,101539.22
2023-12-20T06:01:29.950Z,101538.94
2023-12-20T06:03:56.566Z,101534.63
2023-12-20T06:06:23.089Z,101539.72
2023-12-20T06:08:49.537Z,101541.31
2023-12-20T06:11:16.020Z,101541.31
2023-12-20T06:13:42.553Z,101527.88
2023-12-20T06:16:09.115Z,101532.94
2023-12-20T06:18:35.838Z,101531.84
2023-12-20T06:21:03.782Z,101526.47
2023-12-20T06:23:30.171Z,101533.13
2023-12-20T06:25:56.586Z,101529.34
2023-12-20T06:28:24.074Z,101524.44
2023-12-20T06:30:51.089Z,101531.13
2023-12-20T06:33:17.759Z,101544.75
2023-12-20T06:35:44.226Z,101533.41
2023-12-20T06:38:10.635Z,101524.53
2023-12-20T06:40:37.169Z,101522.81
2023-12-20T06:43:09.458Z,101524.41
2023-12-20T06:45:43.201Z,101532.75
2023-12-20T06:48:09.823Z,101521.53
2023-12-20T06:50:40.887Z,101520.13
2023-12-20T06:53:10.671Z,101509.38
2023-12-20T06:55:38.818Z,101504.00
2023-12-20T06:58:05.799Z,101514.75
2023-12-20T07:00:33.718Z,101516.63
2023-12-20T07:03:00.271Z,101514.47
2023-12-20T07:05:26.850Z,101523.00
2023-12-20T07:07:53.565Z,101515.25
2023-12-20T07:10:20.258Z,101514.16
2023-12-20T07:12:46.891Z,101519.53
2023-12-20T07:15:13.531Z,101517.81
2023-12-20T07:17:39.994Z,101514.53
2023-12-20T07:20:10.849Z,101509.94
2023-12-20T07:22:38.122Z,101506.16
2023-12-20T07:25:05.102Z,101501.56
2023-12-20T07:27:32.085Z,101505.81
2023-12-20T07:29:58.660Z,101510.91
2023-12-20T07:32:25.353Z,101502.34
2023-12-20T07:34:51.874Z,101505.81
2023-12-20T07:37:18.433Z,101496.66
2023-12-20T07:39:45.014Z,101487.81
2023-12-20T07:42:12.024Z,101493.19
2023-12-20T07:44:38.492Z,101502.53
2023-12-20T07:47:05.598Z,101503.00
2023-12-20T07:49:33.177Z,101513.78
2023-12-20T07:51:59.981Z,101508.09
2023-12-20T07:54:26.965Z,101515.06
2023-12-20T07:56:53.540Z,101515.53
2023-12-20T07:59:25.910Z,101524.41
2023-12-20T08:01:59.367Z,101531.38
2023-12-20T08:04:26.339Z,101527.78
2023-12-20T08:06:53.120Z,101530.16
2023-12-20T08:09:20.521Z,101533.34
2023-12-20T08:11:47.869Z,101538.13
2023-12-20T08:14:14.721Z,101540.47
2023-12-20T08:16:41.312Z,101537.00
2023-12-20T08:19:07.953Z,101538.59
2023-12-20T08:21:38.187Z,101527.53
2023-12-20T08:24:05.691Z,101531.00
2023-12-20T08:26:32.108Z,101526.41
2023-12-20T08:29:01.495Z,101526.09
2023-12-20T08:31:28.753Z,101517.25
2023-12-20T08:33:55.425Z,101532.28
2023-12-20T08:36:23.863Z,101530.41
2023-12-20T08:38:50.801Z,101523.59
2023-12-20T08:41:18.862Z,101514.75
2023-12-20T08:43:45.328Z,101514.75
2023-12-20T08:46:12.526Z,101518.22
2023-12-20T08:48:39.483Z,101520.28
2023-12-20T08:51:08.325Z,101518.88
2023-12-20T08:53:35.032Z,101517.00
2023-12-20T08:56:02.821Z,101516.19
2023-12-20T08:58:30.210Z,101519.69
2023-12-20T09:00:57.976Z,101520.78
2023-12-20T09:03:24.601Z,101521.91
2023-12-20T09:05:51.056Z,101523.47
2023-12-20T09:08:17.530Z,101521.91
2023-12-20T09:10:43.945Z,101519.22
2023-12-20T09:13:10.622Z,101515.22
2023-12-20T09:15:37.463Z,101518.69
2023-12-20T09:18:04.801Z,101518.22
2023-12-20T09:20:31.883Z,101516.66
2023-12-20T09:22:58.685Z,101519.00
2023-12-20T09:25:25.488Z,101516.00
2023-12-20T09:27:52.265Z,101503.38
2023-12-20T09:30:26.484Z,101517.31
2023-12-20T09:32:54.528Z,101508.28
2023-12-20T09:35:21.505Z,101510.38
2023-12-20T09:37:48.283Z,101502.97
2023-12-20T09:40:15.425Z,101516.28
2023-12-20T09:42:59.293Z,101514.56
2023-12-20T09:45:26.329Z,101510.94
2023-12-20T09:47:54.934Z,101514.13
2023-12-20T09:50:22.766Z,101515.22
2023-12-20T09:52:52.716Z,101516.00
2023-12-20T09:55:20.858Z,101523.28
2023-12-20T09:57:48.616Z,101522.06
2023-12-20T10:00:16.120Z,101510.50
2023-12-20T10:02:50.624Z,101518.78
2023-12-20T10:05:21.677Z,101520.84
2023-12-20T10:07:48.635Z,101534.63
2023-12-20T10:10:16.117Z,101531.63
2023-12-20T10:13:03.046Z,101532.13
2023-12-20T10:15:29.656Z,101531.31
2023-12-20T10:17:59.596Z,101529.44
2023-12-20T10:20:29.826Z,101537.19
2023-12-20T10:22:57.160Z,101522.63
2023-12-20T10:25:24.783Z,101530.72
2023-12-20T10:28:09.389Z,101531.19
2023-12-20T10:30:35.837Z,101523.75
2023-12-20T10:33:02.593Z,101519.16
2023-12-20T10:35:29.078Z,101511.56
2023-12-20T10:37:57.770Z,101511.41
2023-12-20T10:40:26.392Z,101511.59
2023-12-20T10:42:53.648Z,101520.13
2023-12-20T10:45:20.220Z,101504.59
2023-12-20T10:47:48.431Z,101504.59
2023-12-20T10:50:15.795Z,101504.94
2023-12-20T10:52:43.660Z,101504.47
2023-12-20T10:55:10.323Z,101496.06
2023-12-20T10:57:37.727Z,101497.34
2023-12-20T11:00:05.171Z,101499.91
2023-12-20T11:02:34.409Z,101494.81
2023-12-20T11:05:11.495Z,101489.59
2023-12-20T11:07:44.435Z,101483.72
2023-12-20T11:10:26.328Z,101493.72
2023-12-20T11:13:13.566Z,101478.94
2023-12-20T11:15:40.700Z,101477.03
2023-12-20T11:18:07.893Z,101486.47
2023-12-20T11:20:39.270Z,101482.66
2023-12-20T11:23:07.452Z,101475.28
2023-12-20T11:25:59.771Z,101464.28
2023-12-20T11:28:27.686Z,101457.66
2023-12-20T11:30:56.645Z,101456.72
2023-12-20T11:33:26.912Z,101457.66
2023-12-20T11:35:57.237Z,101458.31
2023-12-20T11:38:23.986Z,101461.63
2023-12-20T11:40:51.892Z,101461.13
2023-12-20T11:43:37.857Z,101458.75
2023-12-20T11:46:08.631Z,101454.63
2023-12-20T11:48:40.133Z,101450.03
2023-12-20T11:51:14.320Z,101446.88
2023-12-20T11:53:44.137Z,101450.84
2023-12-20T11:56:11.274Z,101446.38
2023-12-20T11:58:38.719Z,101440.66
2023-12-20T12:01:08.626Z,101431.91
2023-12-20T12:03:35.424Z,101427.78
2023-12-20T12:06:04.177Z,101430.31
2023-12-20T12:08:30.871Z,101441.31
2023-12-20T12:10:57.864Z,101440.34
2023-12-20T12:13:28.212Z,101435.28
2023-12-20T12:15:55.172Z,101441.81
2023-12-20T12:18:22.068Z,101455.63
2023-12-20T12:20:48.833Z,101444.81
2023-12-20T12:23:15.889Z,101452.09
2023-12-20T12:25:43.675Z,101440.69
2023-12-20T12:28:11.426Z,101440.81
2023-12-20T12:30:42.964Z,101435.91
2023-12-20T12:33:13.596Z,101425.59
2023-12-20T12:35:41.747Z,101411.28
2023-12-20T12:38:09.189Z,101410.50
2023-12-20T12:40:37.194Z,101424.78
2023-12-20T12:43:04.029Z,101412.09
2023-12-20T12:45:30.769Z,101399.38
2023-12-20T12:47:57.551Z,101395.25
2023-12-20T12:50:24.275Z,101399.72
2023-12-20T12:52:50.982Z,101401.94
2023-12-20T12:55:17.401Z,101391.47
2023-12-20T12:57:44.980Z,101392.75
2023-12-20T13:00:12.547Z,101388.47
2023-12-20T13:02:42.682Z,101400.34
2023-12-20T13:05:09.908Z,101391.78
2023-12-20T13:07:36.855Z,101381.97
2023-12-20T13:10:04.701Z,101389.28
2023-12-20T13:12:31.494Z,101373.72
2023-12-20T13:14:58.354Z,101372.91
2023-12-20T13:17:24.936Z,101367.84
2023-12-20T13:19:51.536Z,101366.28
2023-12-20T13:22:18.178Z,101354.22
2023-12-20T13:24:45.689Z,101343.75
2023-12-20T13:27:12.396Z,101345.19
2023-12-20T13:29:40.305Z,101345.97
2023-12-20T13:32:07.949Z,101340.59
2023-12-20T13:34:34.678Z,101342.19
2023-12-20T13:37:01.210Z,101331.72
2023-12-20T13:39:27.740Z,101330.13
2023-12-20T13:41:54.489Z,101331.25
2023-12-20T13:44:20.965Z,101306.16
2023-12-20T13:46:47.791Z,101308.84
2023-12-20T13:49:14.986Z,101311.56
2023-12-20T13:51:41.514Z,101316.94
2023-12-20T13:54:08.036Z,101308.06
2023-12-20T13:56:40.653Z,101316.63
2023-12-20T13:59:14.203Z,101316.31
2023-12-20T14:01:40.714Z,101313.28
2023-12-20T14:04:08.166Z,101318.38
2023-12-20T14:06:34.741Z,101314.88
2023-12-20T14:09:07.083Z,101305.34
2023-12-20T14:11:33.954Z,101309.13
2023-12-20T14:14:00.447Z,101308.81
2023-12-20T14:16:26.892Z,101303.75
2023-12-20T14:18:53.527Z,101308.34
2023-12-20T14:21:21.100Z,101313.28
2023-12-20T14:23:48.976Z,101318.53
2023-12-20T14:26:17.277Z,101331.56
2023-12-20T14:28:43.818Z,101328.38
2023-12-20T14:31:11.392Z,101324.44
2023-12-20T14:33:42.225Z,101322.53
2023-12-20T14:36:09.177Z,101326.34
2023-12-20T14:38:36.784Z,101315.56
2023-12-20T14:41:05.351Z,101312.53
2023-12-20T14:43:31.964Z,101302.22
2023-12-20T14:45:58.466Z,101310.31
2023-12-20T14:48:24.904Z,101309.50
2023-12-20T14:50:52.297Z,101314.44
2023-12-20T14:53:22.667Z,101308.56
2023-12-20T14:55:50.845Z,101304.31
2023-12-20T14:58:17.412Z,101308.56
2023-12-20T15:00:45.071Z,101310.16
2023-12-20T15:03:12.006Z,101302.41
2023-12-20T15:05:39.303Z,101317.78
2023-12-20T15:08:06.388Z,101314.28
2023-12-20T15:10:32.965Z,101313.03
2023-12-20T15:12:59.506Z,101308.75
2023-12-20T15:15:26.057Z,101312.09
2023-12-20T15:17:52.782Z,101305.13
2023-12-20T15:20:19.424Z,101314.31
2023-12-20T15:22:46.864Z,101308.78
2023-12-20T15:25:21.017Z,101304.50
2023-12-20T15:27:50.140Z,101305.63
2023-12-20T15:30:16.695Z,101304.03
2023-12-20T15:32:43.241Z,101298.97
2023-12-20T15:35:10.625Z,101299.31
2023-12-20T15:37:39.905Z,101305.34
2023-12-20T15:40:11.282Z,101309.91
2023-12-20T15:42:39.576Z,101302.97
2023-12-20T15:45:07.217Z,101289.81
2023-12-20T15:47:37.139Z,101279.03
2023-12-20T15:50:05.364Z,101276.66
2023-12-20T15:52:32.254Z,101268.09
2023-12-20T15:54:58.957Z,101269.06
2023-12-20T15:57:25.677Z,101264.31
2023-12-20T15:59:52.323Z,101293.94
2023-12-20T16:02:18.929Z,101287.31
2023-12-20T16:04:46.336Z,101279.22
2023-12-20T16:07:12.916Z,101257.84
2023-12-20T16:09:39.442Z,101250.84
2023-12-20T16:12:06.073Z,101245.47
2023-12-20T16:14:32.636Z,101243.09
2023-12-20T16:17:00.396Z,101248.81
2023-12-20T16:19:27.033Z,101236.44
2023-12-20T16:21:53.879Z,101231.84
2023-12-20T16:24:20.323Z,101231.06
2023-12-20T16:26:46.790Z,101230.75
2023-12-20T16:29:14.531Z,101218.38
2023-12-20T16:31:41.238Z,101209.97
2023-12-20T16:34:08.214Z,101193.50
2023-12-20T16:36:52.233Z,101201.25
2023-12-20T16:39:23.321Z,101202.03
2023-12-20T16:41:50.831Z,101185.88
2023-12-20T16:44:17.741Z,101181.28
2023-12-20T16:46:44.437Z,101172.72
2023-12-20T16:49:11.240Z,101186.50
2023-12-20T16:51:37.809Z,101172.25
2023-12-20T16:54:04.326Z,101168.00
2023-12-20T16:56:30.824Z,101171.78
2023-12-20T16:58:57.539Z,101165.94
2023-12-20T17:01:26.881Z,101162.47
2023-12-20T17:03:54.846Z,101159.28
2023-12-20T17:06:21.452Z,101156.91
2023-12-20T17:08:47.983Z,101143.44
2023-12-20T17:11:15.366Z,101141.53
2023-12-20T17:13:42.056Z,101141.22
2023-12-20T17:16:08.646Z,101145.81
2023-12-20T17:18:35.294Z,101142.00
2023-12-20T17:21:02.011Z,101140.09
2023-12-20T17:23:28.425Z,101136.16
2023-12-20T17:25:54.854Z,101126.16
2023-12-20T17:28:21.317Z,101122.38
2023-12-20T17:30:48.370Z,101131.22
2023-12-20T17:33:16.768Z,101127.75
2023-12-20T17:35:43.322Z,101121.25
2023-12-20T17:38:09.954Z,101113.47
2023-12-20T17:40:40.654Z,101111.28
2023-12-20T17:43:07.972Z,101110.47
2023-12-20T17:45:34.580Z,101109.81
2023-12-20T17:48:01.298Z,101104.44
2023-12-20T17:50:27.873Z,101101.28
2023-12-20T17:52:56.478Z,101104.44
2023-12-20T17:55:24.429Z,101104.88
2023-12-20T17:57:51.347Z,101091.09
2023-12-20T18:00:24.139Z,101098.53
2023-12-20T18:02:52.871Z,101103.13
2023-12-20T18:05:20.967Z,101085.06
2023-12-20T18:07:49.623Z,101091.22
2023-12-20T18:10:16.424Z,101088.22
2023-12-20T18:12:42.911Z,101085.06
2023-12-20T18:15:10.104Z,101077.28
2023-12-20T18:17:36.616Z,101066.53
2023-12-20T18:20:04.839Z,101075.72
2023-12-20T18:22:31.769Z,101079.22
2023-12-20T18:24:58.764Z,101071.13
2023-12-20T18:27:28.062Z,101069.53
2023-12-20T18:30:01.232Z,101057.97
2023-12-20T18:32:36.247Z,101054.47
2023-12-20T18:35:03.907Z,101051.00
2023-12-20T18:37:30.508Z,101053.69
2023-12-20T18:39:57.200Z,101053.69
2023-12-20T18:42:23.630Z,101052.59
2023-12-20T18:44:50.026Z,101034.19
2023-12-20T18:47:16.450Z,101029.25
2023-12-20T18:49:43.037Z,101014.34
2023-12-20T18:52:09.555Z,101006.25
2023-12-20T18:54:37.057Z,101021.28
2023-12-20T18:57:03.692Z,101014.34
2023-12-20T18:59:30.854Z,101017.38
2023-12-20T19:01:57.766Z,101022.75
2023-12-20T19:04:24.296Z,101023.22
2023-12-20T19:06:51.527Z,101010.84
2023-12-20T19:09:17.981Z,101007.81
2023-12-20T19:11:44.440Z,101008.28
2023-12-20T19:14:14.418Z,101007.50
2023-12-20T19:16:41.124Z,101010.31
2023-12-20T19:19:07.637Z,100993.38
2023-12-20T19:21:34.068Z,101003.03
2023-12-20T19:24:00.492Z,100999.22
2023-12-20T19:26:26.924Z,100993.50
2023-12-20T19:28:53.339Z,100982.84
2023-12-20T19:31:20.927Z,100992.53
2023-12-20T19:33:51.483Z,100972.53
2023-12-20T19:36:17.997Z,100973.44
2023-12-20T19:38:44.692Z,100980.72
2023-12-20T19:41:12.227Z,100981.53
2023-12-20T19:43:40.536Z,100987.38
2023-12-20T19:46:07.557Z,100982.00
2023-12-20T19:48:34.039Z,100976.59
2023-12-20T19:51:00.465Z,100961.53
2023-12-20T19:53:29.182Z,100954.59
2023-12-20T19:55:55.724Z,100963.00
2023-12-20T19:58:22.801Z,100964.56
2023-12-20T20:00:55.176Z,100957.59
2023-12-20T20:03:23.343Z,100946.50
2023-12-20T20:05:50.247Z,100953.78
2023-12-20T20:08:17.010Z,100952.22
2023-12-20T20:10:43.555Z,100948.38
2023-12-20T20:13:11.541Z,100951.09
2023-12-20T20:15:38.269Z,100955.50
2023-12-20T20:18:05.435Z,100956.72
2023-12-20T20:20:31.924Z,100945.94
2023-12-20T20:22:58.342Z,100940.22
2023-12-20T20:25:27.318Z,100945.94
2023-12-20T20:27:55.219Z,100955.63
2023-12-20T20:30:21.662Z,100950.66
2023-12-20T20:32:51.838Z,100957.66
2023-12-20T20:35:21.430Z,100962.25
2023-12-20T20:37:48.257Z,100956.88
2023-12-20T20:40:18.816Z,100948.78
2023-12-20T20:42:46.956Z,100939.09
2023-12-20T20:45:14.837Z,100936.88
2023-12-20T20:47:42.632Z,100938.00
2023-12-20T20:50:10.704Z,100917.22
2023-12-20T20:52:37.608Z,100923.38
2023-12-20T20:55:04.708Z,100923.38
2023-12-20T20:57:31.457Z,100923.84
2023-12-20T20:59:57.860Z,100923.06
2023-12-20T21:02:24.744Z,100916.22
2023-12-20T21:04:51.345Z,100917.00
2023-12-20T21:07:17.902Z,100912.38
2023-12-20T21:09:44.355Z,100898.59
2023-12-20T21:12:10.766Z,100885.09
2023-12-20T21:14:37.164Z,100883.88
2023-12-20T21:17:03.783Z,100894.28
2023-12-20T21:19:30.461Z,100885.44
2023-12-20T21:21:56.979Z,100887.78
2023-12-20T21:24:23.579Z,100891.28
2023-12-20T21:26:49.989Z,100882.06
2023-12-20T21:29:16.516Z,100893.63
2023-12-20T21:31:43.359Z,100882.53
2023-12-20T21:34:09.988Z,100871.72
2023-12-20T21:36:36.666Z,100874.44
2023-12-20T21:39:03.495Z,100873.31
2023-12-20T21:41:29.918Z,100866.78
2023-12-20T21:43:56.314Z,100866.13
2023-12-20T21:46:22.803Z,100858.47
2023-12-20T21:48:49.307Z,100857.81
2023-12-20T21:51:15.879Z,100861.78
2023-12-20T21:53:42.639Z,100843.34
2023-12-20T21:56:11.403Z,100858.72
2023-12-20T21:58:40.873Z,100859.53
2023-12-20T22:01:08.669Z,100848.41
2023-12-20T22:03:37.767Z,100864.56
2023-12-20T22:06:06.053Z,100873.78
2023-12-20T22:08:32.572Z,100875.69
2023-12-20T22:11:01.402Z,100866.47
2023-12-20T22:13:31.626Z,100852.31
2023-12-20T22:15:58.730Z,100847.72
2023-12-20T22:18:25.395Z,100857.72
2023-12-20T22:20:52.105Z,100853.13
2023-12-20T22:23:18.686Z,100850.09
2023-12-20T22:25:45.230Z,100850.22
2023-12-20T22:28:11.841Z,100842.59
2023-12-20T22:30:38.331Z,100848.88
2023-12-20T22:33:04.999Z,100838.19
2023-12-20T22:35:31.494Z,100824.38
2023-12-20T22:37:58.001Z,100821.34
2023-12-20T22:40:24.411Z,100830.22
2023-12-20T22:42:50.890Z,100827.06
2023-12-20T22:45:17.280Z,100825.16
2023-12-20T22:47:44.407Z,100827.06
2023-12-20T22:50:11.334Z,100815.59
2023-12-20T22:52:38.115Z,100802.13
2023-12-20T22:55:05.260Z,100814.91
2023-12-20T22:57:31.690Z,100804.13
2023-12-20T22:59:58.176Z,100812.69
2023-12-20T23:02:24.631Z,100815.81
2023-12-20T23:04:51.162Z,100813.47
2023-12-20T23:07:17.629Z,100814.69
2023-12-20T23:09:44.319Z,100807.06
2023-12-20T23:12:10.726Z,100809.38
2023-12-20T23:14:37.160Z,100800.50
2023-12-20T23:17:04.277Z,100791.75
2023-12-20T23:19:31.590Z,100794.09
2023-12-20T23:21:58.345Z,100786.44
2023-12-20T23:24:24.990Z,100787.94
2023-12-20T23:26:51.604Z,100779.03
2023-12-20T23:29:18.306Z,100778.59
2023-12-20T23:31:44.732Z,100778.59
2023-12-20T23:34:11.377Z,100772.41
2023-12-20T23:36:37.904Z,100763.88
2023-12-20T23:39:04.407Z,100748.47
2023-12-20T23:41:30.953Z,100755.31
2023-12-20T23:43:57.610Z,100745.31
2023-12-20T23:46:24.019Z,100742.19
2023-12-20T23:48:50.442Z,100744.50
2023-12-20T23:51:17.000Z,100736.78
2023-12-20T23:53:43.472Z,100730.25
2023-12-20T23:56:12.012Z,100723.75
2023-12-20T23:58:41.883Z,100712.22
